Time;durP1;ratioP1;P1;durP2;ratioP2;P2;SDS_P1;SDS_P2;PMS_P1;PMS_P2;Temp;Humidity;BMP_temperature;BMP_pressure;BME280_temperature;BME280_humidity;BME280_pressure;Samples;Min_cycle;Max_cycle;Signal;HPM_P1;HPM_P2
2022/12/03 00:01:13;;;;;;;30.97;18.67;;;3.60;99.90;;;;;;5034205;28;20452;-87
2022/12/03 00:03:40;;;;;;;28.97;17.67;;;3.50;99.90;;;;;;5034210;28;20531;-87
2022/12/03 00:06:13;;;;;;;28.17;17.77;;;3.50;99.90;;;;;;5033751;28;20452;-87
2022/12/03 00:08:42;;;;;;;30.93;18.70;;;3.40;99.90;;;;;;5034008;28;20445;-86
2022/12/03 00:11:10;;;;;;;33.77;19.20;;;3.30;99.90;;;;;;5034188;28;20472;-87
2022/12/03 00:13:44;;;;;;;33.73;25.53;;;3.40;99.90;;;;;;5033399;28;20435;-90
2022/12/03 00:16:14;;;;;;;30.90;20.40;;;3.50;99.90;;;;;;5034274;28;20480;-86
2022/12/03 00:18:41;;;;;;;30.10;19.47;;;3.60;99.90;;;;;;5033596;28;20456;-86
2022/12/03 00:21:07;;;;;;;30.67;18.77;;;3.50;99.90;;;;;;5033542;28;20452;-85
2022/12/03 00:23:34;;;;;;;26.37;16.53;;;3.40;99.90;;;;;;5033460;28;20459;-83
2022/12/03 00:26:03;;;;;;;30.20;18.60;;;3.40;99.90;;;;;;5033839;28;20451;-82
2022/12/03 00:28:31;;;;;;;30.10;18.03;;;3.40;99.90;;;;;;5033082;28;20456;-85
2022/12/03 00:31:00;;;;;;;25.97;17.30;;;3.40;99.90;;;;;;5033498;28;20450;-88
2022/12/03 00:33:28;;;;;;;27.97;17.33;;;3.50;99.90;;;;;;5019780;28;20465;-83
2022/12/03 00:35:56;;;;;;;28.93;17.90;;;3.40;99.90;;;;;;5033271;28;20944;-84
2022/12/03 00:38:25;;;;;;;28.30;17.20;;;3.40;99.90;;;;;;5033108;28;20444;-83
2022/12/03 00:40:52;;;;;;;28.97;17.43;;;3.50;99.90;;;;;;5033499;28;20445;-83
2022/12/03 00:43:25;;;;;;;27.80;17.60;;;3.40;99.90;;;;;;5033661;28;20491;-86
2022/12/03 00:45:53;;;;;;;27.97;17.90;;;3.50;99.90;;;;;;5033366;28;20444;-78
2022/12/03 00:48:22;;;;;;;29.77;16.80;;;3.40;99.90;;;;;;5033309;28;20801;-86
2022/12/03 00:50:55;;;;;;;29.60;16.87;;;3.30;99.90;;;;;;5028991;28;20818;-87
2022/12/03 00:53:22;;;;;;;29.13;17.80;;;3.30;99.90;;;;;;5026276;28;20494;-81
2022/12/03 00:55:52;;;;;;;26.70;16.77;;;3.40;99.90;;;;;;5033562;28;20440;-84
2022/12/03 00:58:19;;;;;;;27.57;16.90;;;3.40;99.90;;;;;;5033708;28;20436;-88
2022/12/03 01:00:45;;;;;;;27.57;17.70;;;3.40;99.90;;;;;;5033642;28;20424;-88
2022/12/03 01:03:14;;;;;;;26.43;17.10;;;3.40;99.90;;;;;;5033300;28;20503;-79
2022/12/03 01:05:40;;;;;;;24.27;16.53;;;3.30;99.90;;;;;;5033722;28;20501;-88
2022/12/03 01:08:13;;;;;;;25.60;16.33;;;3.20;99.90;;;;;;5034166;28;20453;-87
2022/12/03 01:10:42;;;;;;;27.33;16.53;;;3.30;99.90;;;;;;5033949;28;20428;-90
2022/12/03 01:13:10;;;;;;;25.87;16.70;;;3.20;99.90;;;;;;5034017;28;20444;-88
2022/12/03 01:15:43;;;;;;;24.73;16.57;;;3.30;99.90;;;;;;5033674;28;20445;-87
2022/12/03 01:18:17;;;;;;;22.10;15.53;;;3.30;99.90;;;;;;5033548;28;20436;-88
2022/12/03 01:20:46;;;;;;;26.23;16.13;;;3.20;99.90;;;;;;5033970;28;20424;-82
2022/12/03 01:23:14;;;;;;;22.73;15.40;;;3.20;99.90;;;;;;5034191;28;20846;-88
2022/12/03 01:25:41;;;;;;;27.93;17.20;;;3.20;99.90;;;;;;5034213;28;20446;-88
2022/12/03 01:28:09;;;;;;;24.97;16.77;;;3.20;99.90;;;;;;5033969;28;20444;-88
2022/12/03 01:32:15;;;;;;;23.87;16.10;;;3.30;99.90;;;;;;5033342;28;20912;-89
2022/12/03 01:33:27;;;;;;;26.50;16.43;;;3.30;99.90;;;;;;5033149;28;20521;-86
2022/12/03 01:35:55;;;;;;;23.90;16.40;;;3.40;99.90;;;;;;5033371;28;20891;-87
2022/12/03 01:38:25;;;;;;;27.43;17.63;;;3.40;99.90;;;;;;5033531;28;20482;-83
2022/12/03 01:40:53;;;;;;;24.70;17.27;;;3.40;99.90;;;;;;5035950;28;20441;-85
2022/12/03 01:43:20;;;;;;;24.77;16.43;;;3.40;99.90;;;;;;5036638;28;20479;-89
2022/12/03 01:45:50;;;;;;;22.50;15.73;;;3.50;99.90;;;;;;5036944;28;20440;-87
2022/12/03 01:48:23;;;;;;;25.47;17.80;;;3.40;99.90;;;;;;5037014;28;20437;-87
2022/12/03 01:50:52;;;;;;;22.80;16.07;;;3.40;99.90;;;;;;5037018;28;20428;-89
2022/12/03 01:53:19;;;;;;;22.67;16.03;;;3.40;99.90;;;;;;5036837;28;20487;-86
2022/12/03 01:55:47;;;;;;;25.23;16.43;;;3.40;99.90;;;;;;5037162;28;20448;-89
2022/12/03 01:58:28;;;;;;;23.53;15.43;;;3.30;99.90;;;;;;5037176;28;20437;-88
2022/12/03 02:00:57;;;;;;;24.67;16.43;;;3.40;99.90;;;;;;5036370;28;20449;-83
2022/12/03 02:03:26;;;;;;;24.67;16.90;;;3.50;99.90;;;;;;5036506;28;20480;-87
2022/12/03 02:05:55;;;;;;;25.23;17.00;;;3.40;99.90;;;;;;5036238;28;20462;-86
2022/12/03 02:08:32;;;;;;;25.33;16.97;;;3.40;99.90;;;;;;5036546;28;20445;-88
2022/12/03 02:11:03;;;;;;;22.67;15.83;;;3.40;99.90;;;;;;5036294;28;20447;-85
2022/12/03 02:13:31;;;;;;;26.83;17.77;;;3.30;99.90;;;;;;5036006;28;20448;-85
2022/12/03 02:16:04;;;;;;;25.97;16.53;;;3.20;99.90;;;;;;5036352;28;20432;-88
2022/12/03 02:18:34;;;;;;;24.73;16.33;;;3.20;99.90;;;;;;5036240;28;20831;-88
2022/12/03 02:21:13;;;;;;;23.20;15.67;;;3.20;99.90;;;;;;5036511;28;20451;-88
2022/12/03 02:23:48;;;;;;;25.47;16.57;;;3.30;99.90;;;;;;5035722;28;20496;-89
2022/12/03 02:26:23;;;;;;;23.77;15.23;;;3.40;99.90;;;;;;5036377;28;20458;-91
2022/12/03 02:28:50;;;;;;;25.60;16.40;;;3.20;99.90;;;;;;5036385;28;20444;-84
2022/12/03 02:31:17;;;;;;;23.83;16.10;;;3.30;99.90;;;;;;5036032;28;20449;-85
2022/12/03 02:33:45;;;;;;;23.83;16.90;;;3.40;99.90;;;;;;5036478;28;20453;-86
2022/12/03 02:36:13;;;;;;;25.87;17.10;;;3.30;99.90;;;;;;5036260;28;20436;-86
2022/12/03 02:38:42;;;;;;;24.93;16.30;;;3.20;99.90;;;;;;5035961;28;20433;-87
2022/12/03 02:42:33;;;;;;;25.33;16.60;;;3.20;99.90;;;;;;5035899;28;20433;-89
2022/12/03 02:44:01;;;;;;;25.03;16.23;;;3.20;99.90;;;;;;5035025;28;20565;-88
2022/12/03 02:46:34;;;;;;;27.93;16.60;;;3.30;99.90;;;;;;5035916;28;20451;-88
2022/12/03 02:49:05;;;;;;;25.93;16.77;;;3.20;99.90;;;;;;5035805;28;20455;-88
2022/12/03 02:51:34;;;;;;;25.47;15.93;;;3.20;99.90;;;;;;5035520;28;20443;-87
2022/12/03 02:54:07;;;;;;;25.67;16.77;;;3.30;99.90;;;;;;5035621;28;20820;-85
2022/12/03 02:56:34;;;;;;;22.37;15.67;;;3.40;99.90;;;;;;5035888;28;20436;-85
2022/12/03 02:59:05;;;;;;;25.97;17.23;;;3.40;99.90;;;;;;5035749;28;20449;-87
2022/12/03 03:01:38;;;;;;;26.13;17.30;;;3.60;99.90;;;;;;5035456;28;20814;-86
2022/12/03 03:04:06;;;;;;;22.07;16.10;;;3.50;99.90;;;;;;5035459;28;20563;-85
2022/12/03 03:06:33;;;;;;;24.40;16.77;;;3.40;99.90;;;;;;5034957;28;20467;-86
2022/12/03 03:09:02;;;;;;;24.07;16.47;;;3.40;99.90;;;;;;5035284;28;20451;-87
2022/12/03 03:11:29;;;;;;;22.57;14.67;;;3.50;99.90;;;;;;5035503;28;20441;-88
2022/12/03 03:14:00;;;;;;;23.13;16.00;;;3.40;99.90;;;;;;5035030;28;20440;-88
2022/12/03 03:16:29;;;;;;;26.20;16.60;;;3.50;99.90;;;;;;5035260;28;20456;-87
2022/12/03 03:18:56;;;;;;;25.10;16.27;;;3.40;99.90;;;;;;5035483;28;20452;-88
2022/12/03 03:21:25;;;;;;;27.30;17.27;;;3.40;99.90;;;;;;5035029;28;20802;-88
2022/12/03 03:23:52;;;;;;;25.10;16.17;;;3.20;99.90;;;;;;5032190;28;20982;-88
2022/12/03 03:26:25;;;;;;;25.73;16.80;;;3.40;99.90;;;;;;5034921;28;20932;-85
2022/12/03 03:28:56;;;;;;;25.13;16.80;;;3.20;99.90;;;;;;5034778;28;20440;-87
2022/12/03 03:31:24;;;;;;;25.97;16.00;;;3.20;99.90;;;;;;5034838;28;20444;-88
2022/12/03 03:33:58;;;;;;;24.97;16.37;;;3.10;99.90;;;;;;5034860;28;20456;-89
2022/12/03 03:36:25;;;;;;;27.63;17.73;;;3.00;99.90;;;;;;5034963;28;20455;-87
2022/12/03 03:38:58;;;;;;;26.27;17.20;;;3.00;99.90;;;;;;5034713;28;20452;-90
2022/12/03 03:41:29;;;;;;;28.50;17.23;;;3.10;99.90;;;;;;5034983;28;20452;-88
2022/12/03 03:44:00;;;;;;;25.73;16.57;;;3.10;99.90;;;;;;5034446;28;20491;-87
2022/12/03 03:46:28;;;;;;;23.97;16.70;;;3.10;99.90;;;;;;5034375;28;20532;-87
2022/12/03 03:48:55;;;;;;;22.47;16.30;;;3.10;99.90;;;;;;5034409;28;20437;-88
2022/12/03 03:51:23;;;;;;;22.40;16.03;;;3.30;99.90;;;;;;5034275;28;20455;-90
2022/12/03 03:53:51;;;;;;;22.23;16.10;;;3.20;99.90;;;;;;5034636;28;20467;-87
2022/12/03 03:56:20;;;;;;;24.43;16.67;;;3.20;99.90;;;;;;5036219;28;20550;-88
2022/12/03 03:58:47;;;;;;;22.77;15.77;;;3.20;99.90;;;;;;5035117;28;20444;-87
2022/12/03 04:01:15;;;;;;;22.80;15.57;;;3.10;99.90;;;;;;5034037;28;20451;-85
2022/12/03 04:03:41;;;;;;;23.23;16.33;;;3.20;99.90;;;;;;5033219;28;20503;-86
2022/12/03 04:06:08;;;;;;;24.03;16.17;;;3.20;99.90;;;;;;5033646;28;20460;-82
2022/12/03 04:08:37;;;;;;;23.30;16.47;;;3.20;99.90;;;;;;5033977;28;20939;-82
2022/12/03 04:13:48;;;;;;;22.40;16.00;;;3.30;99.90;;;;;;5034418;28;20503;-82
2022/12/03 04:16:14;;;;;;;22.97;16.23;;;3.20;99.90;;;;;;5034038;28;20454;-88
2022/12/03 04:18:44;;;;;;;25.67;16.57;;;3.20;99.90;;;;;;5033441;28;20963;-87
2022/12/03 04:23:58;;;;;;;22.47;15.37;;;3.30;99.90;;;;;;5033913;28;20549;-87
2022/12/03 04:29:09;;;;;;;28.93;16.23;;;3.20;99.90;;;;;;5033766;28;21050;-84
2022/12/03 04:37:06;;;;;;;30.70;17.43;;;3.20;99.90;;;;;;5033615;28;20423;-86
2022/12/03 04:39:34;;;;;;;28.53;16.93;;;3.40;99.90;;;;;;5033255;28;20924;-81
2022/12/03 04:42:01;;;;;;;27.77;17.07;;;3.40;99.90;;;;;;5033466;28;20433;-87
2022/12/03 04:44:37;;;;;;;31.30;18.10;;;3.50;99.90;;;;;;5033687;28;20497;-85
2022/12/03 04:47:07;;;;;;;27.80;17.43;;;3.50;99.90;;;;;;5034181;28;20448;-84
2022/12/03 04:49:35;;;;;;;27.70;16.77;;;3.40;99.90;;;;;;5034017;28;20459;-82
2022/12/03 04:52:02;;;;;;;27.47;17.73;;;3.40;99.90;;;;;;5033715;28;20480;-86
2022/12/03 04:54:29;;;;;;;25.90;17.13;;;3.40;99.90;;;;;;5033684;28;20479;-87
2022/12/03 04:56:58;;;;;;;27.50;16.80;;;3.30;99.90;;;;;;5034389;28;20449;-85
2022/12/03 04:59:24;;;;;;;26.57;16.20;;;3.40;99.90;;;;;;5034535;28;20447;-87
2022/12/03 05:01:51;;;;;;;27.70;17.50;;;3.30;99.90;;;;;;5033963;28;20433;-86
2022/12/03 05:04:18;;;;;;;24.70;16.77;;;3.30;99.90;;;;;;5033871;28;20553;-85
2022/12/03 05:06:45;;;;;;;24.50;16.37;;;3.30;99.90;;;;;;5033564;28;20456;-84
2022/12/03 05:09:12;;;;;;;24.67;16.30;;;3.50;99.90;;;;;;5033200;28;20451;-84
2022/12/03 05:11:39;;;;;;;23.53;16.10;;;3.40;99.90;;;;;;5033771;28;20448;-87
2022/12/03 05:14:08;;;;;;;22.57;16.13;;;3.50;99.90;;;;;;5035134;28;20448;-84
2022/12/03 05:16:36;;;;;;;23.73;16.10;;;3.40;99.90;;;;;;5037058;28;20441;-88
2022/12/03 05:19:04;;;;;;;26.07;16.47;;;3.40;99.90;;;;;;5037890;28;20434;-88
2022/12/03 05:21:30;;;;;;;27.17;17.10;;;3.40;99.90;;;;;;5036171;28;20440;-80
2022/12/03 05:23:57;;;;;;;27.13;17.37;;;3.50;99.90;;;;;;5036998;28;21085;-86
2022/12/03 05:26:24;;;;;;;24.77;16.53;;;3.50;99.90;;;;;;5037352;28;20456;-86
2022/12/03 05:28:51;;;;;;;24.50;16.70;;;3.50;99.90;;;;;;5037487;28;20433;-86
2022/12/03 05:31:20;;;;;;;25.67;16.83;;;3.60;99.90;;;;;;5037155;28;20472;-81
2022/12/03 05:33:47;;;;;;;23.20;16.77;;;3.60;99.90;;;;;;5037363;28;20210;-86
2022/12/03 05:36:14;;;;;;;27.13;17.43;;;3.50;99.90;;;;;;5037554;28;20535;-81
2022/12/03 05:38:41;;;;;;;25.63;16.90;;;3.30;99.90;;;;;;5037439;28;20487;-80
2022/12/03 05:43:55;;;;;;;26.33;16.50;;;3.60;99.90;;;;;;5036877;28;20618;-81
2022/12/03 05:46:24;;;;;;;24.83;16.93;;;3.50;99.90;;;;;;5037391;28;20459;-80
2022/12/03 05:48:54;;;;;;;29.57;17.73;;;3.50;99.90;;;;;;5036877;28;20944;-81
2022/12/03 05:51:21;;;;;;;26.20;17.17;;;3.50;99.90;;;;;;5036560;28;20464;-79
2022/12/03 05:53:48;;;;;;;27.33;16.93;;;3.30;99.90;;;;;;5036232;28;20464;-79
2022/12/03 05:56:14;;;;;;;28.27;17.80;;;3.20;99.90;;;;;;5036376;28;20444;-79
2022/12/03 05:58:41;;;;;;;27.43;18.40;;;3.10;99.90;;;;;;5036004;28;20438;-80
2022/12/03 06:01:08;;;;;;;27.47;18.03;;;3.20;99.90;;;;;;5034492;28;20460;-81
2022/12/03 06:03:36;;;;;;;28.17;18.53;;;3.30;99.90;;;;;;5035795;28;20492;-80
2022/12/03 06:06:05;;;;;;;26.40;17.57;;;3.20;99.90;;;;;;5036430;28;20445;-83
2022/12/03 06:08:33;;;;;;;26.50;17.57;;;3.30;99.90;;;;;;5035852;28;20452;-81
2022/12/03 06:11:00;;;;;;;29.13;18.27;;;3.40;99.90;;;;;;5036349;28;20436;-77
2022/12/03 06:13:27;;;;;;;27.00;17.63;;;3.50;99.90;;;;;;5036244;28;20460;-83
2022/12/03 06:15:53;;;;;;;28.93;19.40;;;3.50;99.90;;;;;;5035967;28;20436;-80
2022/12/03 06:18:20;;;;;;;29.53;18.47;;;3.30;99.90;;;;;;5035483;28;20460;-79
2022/12/03 06:20:48;;;;;;;28.97;17.97;;;3.20;99.90;;;;;;5035777;28;20206;-79
2022/12/03 06:23:15;;;;;;;27.43;17.87;;;3.10;99.90;;;;;;5035743;28;20488;-79
2022/12/03 06:25:42;;;;;;;33.87;18.90;;;3.20;99.90;;;;;;5034989;28;20448;-80
2022/12/03 06:28:09;;;;;;;34.37;19.80;;;3.10;99.90;;;;;;5036065;28;20445;-79
2022/12/03 06:30:36;;;;;;;29.87;18.57;;;3.10;99.90;;;;;;5036069;28;20974;-81
2022/12/03 06:33:03;;;;;;;31.93;19.13;;;3.10;99.90;;;;;;5035535;28;20467;-79
2022/12/03 06:35:30;;;;;;;34.00;20.47;;;3.00;99.90;;;;;;5034950;28;20451;-79
2022/12/03 06:37:59;;;;;;;30.63;20.17;;;3.00;99.90;;;;;;5035145;28;20458;-79
2022/12/03 06:40:26;;;;;;;30.43;18.97;;;3.10;99.90;;;;;;5035053;28;21416;-77
2022/12/03 06:42:54;;;;;;;32.63;20.20;;;3.10;99.90;;;;;;5020864;28;21060;-77
2022/12/03 06:45:20;;;;;;;33.67;20.07;;;3.10;99.90;;;;;;5035164;28;20495;-79
2022/12/03 06:47:47;;;;;;;35.27;21.87;;;3.20;99.90;;;;;;5034571;28;20950;-77
2022/12/03 06:50:17;;;;;;;32.23;20.27;;;3.10;99.90;;;;;;5033964;28;20454;-77
2022/12/03 06:52:44;;;;;;;31.03;19.30;;;3.10;99.90;;;;;;5034765;28;20440;-75
2022/12/03 06:55:12;;;;;;;33.40;20.23;;;3.20;99.90;;;;;;5035093;28;20448;-78
2022/12/03 06:57:39;;;;;;;35.93;20.27;;;3.30;99.90;;;;;;5034688;28;20860;-79
2022/12/03 07:00:08;;;;;;;35.23;21.37;;;3.20;99.90;;;;;;5034723;28;20445;-77
2022/12/03 07:02:35;;;;;;;32.13;19.97;;;3.20;99.90;;;;;;5034587;28;20445;-77
2022/12/03 07:05:01;;;;;;;32.27;19.57;;;3.20;99.90;;;;;;5034187;28;20496;-77
2022/12/03 07:07:28;;;;;;;30.73;19.40;;;3.30;99.90;;;;;;5031954;28;20453;-77
2022/12/03 07:09:55;;;;;;;28.27;19.47;;;3.20;99.90;;;;;;5027333;28;20455;-81
2022/12/03 07:12:23;;;;;;;32.17;19.70;;;3.50;99.90;;;;;;5034441;28;20951;-78
2022/12/03 07:14:50;;;;;;;36.07;21.07;;;3.50;99.90;;;;;;5023347;28;20461;-83
2022/12/03 07:17:17;;;;;;;36.67;28.38;;;3.40;99.90;;;;;;5031559;28;20438;-81
2022/12/03 07:19:45;;;;;;;36.40;23.33;;;3.50;99.90;;;;;;5033965;28;20689;-82
2022/12/03 07:22:12;;;;;;;33.47;20.93;;;3.40;99.90;;;;;;5027787;28;20203;-82
2022/12/03 07:24:39;;;;;;;33.60;21.23;;;3.30;99.90;;;;;;5035263;28;20484;-86
2022/12/03 07:27:06;;;;;;;32.77;20.07;;;3.50;99.90;;;;;;5034765;28;20581;-81
2022/12/03 07:29:34;;;;;;;33.23;21.00;;;3.60;99.90;;;;;;5032637;28;20199;-84
2022/12/03 07:32:01;;;;;;;33.80;20.80;;;3.40;99.90;;;;;;5025755;28;20825;-83
2022/12/03 07:34:28;;;;;;;33.67;20.27;;;3.40;99.90;;;;;;5028368;28;20582;-79
2022/12/03 07:36:56;;;;;;;34.60;21.13;;;3.40;99.90;;;;;;5033726;28;20693;-81
2022/12/03 07:39:23;;;;;;;31.40;19.20;;;3.60;99.90;;;;;;5030602;28;20199;-82
2022/12/03 07:41:49;;;;;;;35.37;21.07;;;3.50;99.90;;;;;;5033828;28;20195;-83
2022/12/03 07:44:16;;;;;;;33.83;20.27;;;3.30;99.90;;;;;;5034304;28;20503;-81
2022/12/03 07:46:44;;;;;;;34.63;21.07;;;3.30;99.90;;;;;;5017040;28;20464;-81
2022/12/03 07:49:12;;;;;;;32.53;20.83;;;3.40;99.90;;;;;;5028243;28;20783;-78
2022/12/03 07:51:39;;;;;;;31.60;21.30;;;3.30;99.90;;;;;;5019306;28;20931;-77
2022/12/03 07:54:07;;;;;;;32.73;20.23;;;3.50;99.90;;;;;;5033669;28;20471;-77
2022/12/03 07:56:33;;;;;;;34.27;21.10;;;3.40;99.90;;;;;;5033605;28;20444;-74
2022/12/03 07:59:00;;;;;;;31.70;19.90;;;3.30;99.90;;;;;;5030332;28;20434;-76
2022/12/03 08:01:28;;;;;;;31.10;20.07;;;3.40;99.90;;;;;;5014058;28;20445;-90
2022/12/03 08:03:56;;;;;;;32.23;20.27;;;3.40;99.90;;;;;;5033689;28;20967;-79
2022/12/03 08:06:25;;;;;;;35.43;21.90;;;3.50;99.90;;;;;;5021885;28;20457;-79
2022/12/03 08:09:07;;;;;;;35.67;20.87;;;3.70;99.90;;;;;;5006216;28;20538;-75
2022/12/03 08:11:34;;;;;;;33.17;20.17;;;3.70;99.90;;;;;;5017973;28;20577;-77
2022/12/03 08:14:00;;;;;;;30.50;19.67;;;3.60;99.90;;;;;;5033209;28;20459;-78
2022/12/03 08:16:30;;;;;;;35.43;20.47;;;3.50;99.90;;;;;;5019477;28;20456;-78
2022/12/03 08:19:01;;;;;;;31.93;19.50;;;3.50;99.90;;;;;;5033860;28;20451;-82
2022/12/03 08:21:34;;;;;;;33.50;20.23;;;3.50;99.90;;;;;;5030638;28;20452;-79
2022/12/03 08:24:13;;;;;;;30.93;19.60;;;3.70;99.90;;;;;;5018343;28;20496;-79
2022/12/03 08:26:40;;;;;;;35.03;20.37;;;3.50;99.90;;;;;;5012609;28;20539;-79
2022/12/03 08:29:09;;;;;;;31.90;19.87;;;3.40;99.90;;;;;;5024873;28;20451;-79
2022/12/03 08:31:36;;;;;;;31.23;19.40;;;3.30;99.90;;;;;;5032248;28;20453;-78
2022/12/03 08:34:16;;;;;;;34.93;21.07;;;3.30;99.90;;;;;;5032526;28;20459;-77
2022/12/03 08:36:43;;;;;;;33.17;20.43;;;3.50;99.90;;;;;;5026177;28;20927;-84
2022/12/03 08:39:25;;;;;;;30.90;21.07;;;3.70;99.90;;;;;;5033440;28;20467;-80
2022/12/03 08:44:40;;;;;;;35.17;22.17;;;3.70;99.90;;;;;;5034237;28;20554;-76
2022/12/03 08:47:13;;;;;;;33.80;21.00;;;3.70;99.90;;;;;;5025164;28;20442;-85
2022/12/03 08:49:42;;;;;;;30.00;18.70;;;3.60;99.90;;;;;;5017185;28;20450;-78
2022/12/03 08:52:14;;;;;;;35.90;21.30;;;3.60;99.90;;;;;;5034682;28;20453;-81
2022/12/03 08:54:44;;;;;;;35.40;21.53;;;3.80;99.90;;;;;;5031666;28;20468;-80
2022/12/03 08:57:24;;;;;;;32.93;21.07;;;3.60;99.90;;;;;;5036838;28;20890;-80
2022/12/03 08:59:54;;;;;;;35.37;21.13;;;3.60;99.90;;;;;;5036815;28;20443;-79
2022/12/03 09:02:30;;;;;;;37.27;21.53;;;3.70;99.90;;;;;;5036553;28;20445;-76
2022/12/03 09:05:02;;;;;;;38.87;22.27;;;3.80;99.90;;;;;;5035427;28;20483;-78
2022/12/03 09:07:29;;;;;;;35.60;22.33;;;3.70;99.90;;;;;;5023834;28;20448;-79
2022/12/03 09:09:56;;;;;;;32.33;21.30;;;3.90;99.90;;;;;;5036062;28;20456;-78
2022/12/03 09:12:23;;;;;;;33.47;20.63;;;3.90;99.90;;;;;;5035925;28;20450;-79
2022/12/03 09:14:49;;;;;;;36.57;21.93;;;3.90;99.90;;;;;;5036328;28;20931;-78
2022/12/03 09:17:16;;;;;;;32.40;21.30;;;4.10;99.90;;;;;;5035348;28;20772;-78
2022/12/03 09:19:44;;;;;;;33.73;21.37;;;4.20;99.90;;;;;;5036806;28;20564;-78
2022/12/03 09:22:14;;;;;;;36.83;21.47;;;4.00;99.90;;;;;;5034031;28;20227;-78
2022/12/03 09:24:40;;;;;;;35.23;21.93;;;3.80;99.90;;;;;;5026105;28;20288;-78
2022/12/03 09:27:07;;;;;;;35.23;21.97;;;4.00;99.90;;;;;;5036953;28;20440;-78
2022/12/03 09:29:34;;;;;;;34.07;21.73;;;4.00;99.90;;;;;;5036996;28;20815;-78
2022/12/03 09:32:01;;;;;;;38.80;22.70;;;3.90;99.90;;;;;;5036347;28;20946;-77
2022/12/03 09:34:28;;;;;;;32.93;21.23;;;4.00;99.90;;;;;;5035787;28;20461;-80
2022/12/03 09:36:54;;;;;;;38.37;22.20;;;4.20;99.90;;;;;;5036200;28;20657;-77
2022/12/03 09:39:22;;;;;;;32.27;20.60;;;4.00;99.90;;;;;;5036349;28;20441;-79
2022/12/03 09:41:50;;;;;;;36.23;21.87;;;3.90;99.90;;;;;;5036096;28;20453;-80
2022/12/03 09:44:16;;;;;;;35.53;21.87;;;4.00;99.90;;;;;;5035254;28;20234;-77
2022/12/03 09:46:45;;;;;;;31.10;20.03;;;3.90;99.90;;;;;;5035660;28;20489;-79
2022/12/03 09:49:16;;;;;;;36.80;22.73;;;3.90;99.90;;;;;;5036018;28;20534;-77
2022/12/03 09:51:44;;;;;;;34.27;22.53;;;4.00;99.90;;;;;;5036389;28;20446;-81
2022/12/03 09:54:15;;;;;;;32.13;21.17;;;4.20;99.90;;;;;;5036459;28;20464;-81
2022/12/03 09:56:43;;;;;;;38.03;20.87;;;4.10;99.90;;;;;;5036510;28;20701;-79
2022/12/03 09:59:13;;;;;;;35.80;21.60;;;4.00;99.90;;;;;;5035945;28;20520;-80
2022/12/03 10:01:40;;;;;;;37.13;22.17;;;3.90;99.90;;;;;;5034988;28;20466;-79
2022/12/03 10:04:07;;;;;;;34.50;22.40;;;4.00;99.90;;;;;;5036459;28;20665;-79
2022/12/03 10:06:34;;;;;;;33.10;20.73;;;4.20;99.90;;;;;;5035712;28;20615;-78
2022/12/03 10:09:00;;;;;;;30.23;20.93;;;4.20;99.90;;;;;;5036000;28;20200;-80
2022/12/03 10:11:30;;;;;;;34.93;21.77;;;4.20;99.90;;;;;;5036035;28;20191;-77
2022/12/03 10:13:58;;;;;;;35.40;20.17;;;4.10;99.90;;;;;;5035571;28;20217;-82
2022/12/03 10:16:27;;;;;;;37.97;23.13;;;4.30;99.90;;;;;;5035803;28;20610;-80
2022/12/03 10:18:56;;;;;;;34.00;21.60;;;4.10;99.90;;;;;;5035724;28;20853;-79
2022/12/03 10:21:26;;;;;;;35.17;21.17;;;4.10;99.90;;;;;;5036021;28;20207;-78
2022/12/03 10:24:17;;;;;;;32.87;21.37;;;4.30;99.90;;;;;;5035746;28;20207;-82
2022/12/03 10:26:46;;;;;;;38.10;22.43;;;4.00;99.90;;;;;;5035546;28;20207;-82
2022/12/03 10:29:16;;;;;;;33.77;21.93;;;4.10;99.90;;;;;;5035573;28;20216;-79
2022/12/03 10:31:43;;;;;;;31.17;19.97;;;4.30;99.90;;;;;;5033859;28;20206;-81
2022/12/03 10:34:10;;;;;;;32.43;20.20;;;4.30;99.90;;;;;;5033285;28;20381;-84
2022/12/03 10:36:38;;;;;;;32.03;21.73;;;4.40;99.90;;;;;;5036919;28;20681;-88
2022/12/03 10:39:11;;;;;;;34.23;21.57;;;4.60;99.90;;;;;;5030202;28;20560;-80
2022/12/03 10:41:38;;;;;;;35.13;20.47;;;4.60;99.90;;;;;;5024988;28;20266;-82
2022/12/03 10:44:17;;;;;;;31.47;20.83;;;4.60;99.90;;;;;;5024764;28;20207;-81
2022/12/03 10:46:45;;;;;;;32.77;21.30;;;4.80;99.90;;;;;;5026497;28;20195;-83
2022/12/03 10:49:17;;;;;;;31.90;20.40;;;4.80;99.90;;;;;;5026241;28;20203;-79
2022/12/03 10:51:45;;;;;;;30.47;21.23;;;4.80;99.90;;;;;;5025490;28;20207;-80
2022/12/03 10:54:17;;;;;;;30.60;19.80;;;4.80;99.90;;;;;;5024041;28;20590;-82
2022/12/03 10:56:45;;;;;;;30.63;20.20;;;4.80;99.90;;;;;;5024459;28;20191;-81
2022/12/03 10:59:18;;;;;;;31.73;20.83;;;4.90;99.90;;;;;;5027015;28;20196;-83
2022/12/03 11:01:46;;;;;;;34.67;22.07;;;4.80;99.90;;;;;;5023998;28;20573;-82
2022/12/03 11:04:20;;;;;;;34.33;21.93;;;4.30;99.90;;;;;;5025447;28;20235;-83
2022/12/03 11:06:48;;;;;;;29.27;20.47;;;4.50;99.90;;;;;;5025167;28;20265;-81
2022/12/03 11:09:19;;;;;;;33.40;20.87;;;4.20;99.90;;;;;;5023518;28;20200;-83
2022/12/03 11:11:48;;;;;;;34.67;21.60;;;4.10;99.90;;;;;;5023452;28;20800;-81
2022/12/03 11:15:14;;;;;;;33.47;21.17;;;4.10;99.90;;;;;;5023773;28;20192;-81
2022/12/03 11:17:49;;;;;;;37.87;22.33;;;4.30;99.90;;;;;;5024169;28;20215;-81
2022/12/03 11:21:08;;;;;;;34.13;21.77;;;4.60;99.90;;;;;;5022628;28;20231;-77
2022/12/03 11:24:27;;;;;;;37.20;22.53;;;4.50;99.90;;;;;;5023106;28;20572;-79
2022/12/03 11:27:17;;;;;;;32.23;20.73;;;4.30;99.90;;;;;;5025845;28;20290;-80
2022/12/03 11:29:51;;;;;;;32.63;20.80;;;4.10;99.90;;;;;;5028336;28;20191;-85
2022/12/03 11:33:05;;;;;;;34.07;21.23;;;4.10;99.90;;;;;;5034955;28;20195;-83
2022/12/03 11:36:04;;;;;;;32.40;21.30;;;4.30;99.90;;;;;;5035350;28;20199;-82
2022/12/03 11:38:47;;;;;;;33.13;21.33;;;4.30;99.90;;;;;;5031959;28;20203;-82
2022/12/03 11:41:16;;;;;;;35.60;22.50;;;4.40;99.90;;;;;;5030043;28;20436;-83
2022/12/03 11:44:30;;;;;;;38.37;24.57;;;4.50;99.90;;;;;;5014774;28;20940;-84
2022/12/03 11:47:12;;;;;;;35.77;21.63;;;4.30;99.90;;;;;;4993038;28;20703;-82
2022/12/03 11:49:49;;;;;;;34.80;20.90;;;4.10;99.90;;;;;;5020412;28;20452;-82
2022/12/03 11:52:29;;;;;;;34.73;21.77;;;4.10;99.90;;;;;;5014741;28;20456;-83
2022/12/03 11:55:13;;;;;;;29.97;19.93;;;4.40;99.90;;;;;;5026814;28;20329;-81
2022/12/03 11:57:42;;;;;;;34.40;21.07;;;4.20;99.90;;;;;;5027843;28;20437;-84
2022/12/03 12:00:17;;;;;;;34.27;20.73;;;4.30;99.90;;;;;;5034123;28;20277;-84
2022/12/03 12:02:44;;;;;;;34.50;21.47;;;4.20;99.90;;;;;;5033833;28;20535;-81
2022/12/03 12:05:32;;;;;;;33.63;20.60;;;4.30;99.90;;;;;;5033640;28;20242;-84
2022/12/03 12:08:00;;;;;;;29.37;17.50;;;4.50;99.90;;;;;;5034297;28;20604;-86
2022/12/03 12:10:46;;;;;;;32.47;20.93;;;4.30;99.90;;;;;;5033977;28;20206;-83
2022/12/03 12:13:26;;;;;;;30.33;18.93;;;4.20;99.90;;;;;;5034504;28;20214;-85
2022/12/03 12:15:53;;;;;;;29.33;19.10;;;4.20;99.90;;;;;;5033952;28;20281;-84
2022/12/03 12:18:38;;;;;;;34.77;20.47;;;4.30;99.90;;;;;;5034396;28;20455;-84
2022/12/03 12:21:40;;;;;;;34.30;22.92;;;4.20;99.90;;;;;;5020969;28;20444;-82
2022/12/03 12:24:34;;;;;;;35.30;21.70;;;4.30;99.90;;;;;;5023799;28;20202;-85
2022/12/03 12:27:05;;;;;;;32.27;20.90;;;4.10;99.90;;;;;;5034208;28;20235;-80
2022/12/03 12:29:32;;;;;;;32.33;20.40;;;4.40;99.90;;;;;;5034545;28;20242;-84
2022/12/03 12:32:13;;;;;;;31.23;20.60;;;4.50;99.90;;;;;;5033900;28;20203;-80
2022/12/03 12:34:41;;;;;;;33.10;20.13;;;4.40;99.90;;;;;;5033696;28;20203;-81
2022/12/03 12:37:11;;;;;;;31.60;20.40;;;4.30;99.90;;;;;;5021203;28;20200;-79
2022/12/03 12:39:38;;;;;;;27.93;20.30;;;4.50;99.90;;;;;;5017771;28;20539;-79
2022/12/03 12:42:30;;;;;;;32.57;20.57;;;4.50;99.90;;;;;;5013980;28;20196;-79
2022/12/03 12:45:01;;;;;;;32.50;20.97;;;4.50;99.90;;;;;;5027480;28;20638;-81
2022/12/03 12:47:30;;;;;;;28.77;19.63;;;4.20;99.90;;;;;;5024245;28;20200;-80
2022/12/03 12:49:57;;;;;;;32.37;18.87;;;4.30;99.90;;;;;;5030997;28;20616;-82
2022/12/03 12:52:24;;;;;;;31.20;19.33;;;4.30;99.90;;;;;;5032963;28;20538;-83
2022/12/03 12:54:51;;;;;;;28.93;19.83;;;4.50;99.90;;;;;;5013186;28;20229;-85
2022/12/03 12:57:23;;;;;;;32.37;20.43;;;4.20;99.90;;;;;;5017161;28;20203;-80
2022/12/03 12:59:51;;;;;;;30.33;19.27;;;4.20;99.90;;;;;;5027485;28;20208;-84
2022/12/03 13:02:43;;;;;;;31.87;19.70;;;4.40;99.90;;;;;;5032802;28;20249;-80
2022/12/03 13:05:12;;;;;;;27.70;18.10;;;4.30;99.90;;;;;;5032745;28;20219;-81
2022/12/03 13:07:41;;;;;;;28.67;18.57;;;4.00;99.90;;;;;;5029099;28;20459;-83
2022/12/03 13:10:27;;;;;;;30.10;18.93;;;4.20;99.90;;;;;;5031813;28;20527;-83
2022/12/03 13:12:56;;;;;;;30.03;18.80;;;4.50;99.90;;;;;;5033076;28;20207;-82